sensor_id;sensor_type;location;lat;lon;timestamp;temperature;humidity
20376;DHT22;10347;51.828;6.466;2023-02-01T00:01:38;7.30;99.90
20376;DHT22;10347;51.828;6.466;2023-02-01T00:04:04;7.30;99.90
20376;DHT22;10347;51.828;6.466;2023-02-01T00:06:30;7.30;99.90
20376;DHT22;10347;51.828;6.466;2023-02-01T00:08:55;7.30;99.90
20376;DHT22;10347;51.828;6.466;2023-02-01T00:11:22;7.30;99.90
20376;DHT22;10347;51.828;6.466;2023-02-01T00:13:48;7.20;99.90
20376;DHT22;10347;51.828;6.466;2023-02-01T00:18:42;7.20;99.90
20376;DHT22;10347;51.828;6.466;2023-02-01T00:21:09;7.30;99.90
20376;DHT22;10347;51.828;6.466;2023-02-01T00:23:36;7.30;99.90
20376;DHT22;10347;51.828;6.466;2023-02-01T00:26:03;7.20;99.90
20376;DHT22;10347;51.828;6.466;2023-02-01T00:28:28;7.20;99.90
20376;DHT22;10347;51.828;6.466;2023-02-01T00:30:58;7.20;99.90
20376;DHT22;10347;51.828;6.466;2023-02-01T00:33:24;7.20;99.90
20376;DHT22;10347;51.828;6.466;2023-02-01T00:35:50;7.20;99.90
20376;DHT22;10347;51.828;6.466;2023-02-01T00:38:15;7.20;99.90
20376;DHT22;10347;51.828;6.466;2023-02-01T00:40:41;7.20;99.90
20376;DHT22;10347;51.828;6.466;2023-02-01T00:43:06;7.20;99.90
20376;DHT22;10347;51.828;6.466;2023-02-01T00:45:32;7.20;99.90
20376;DHT22;10347;51.828;6.466;2023-02-01T00:48:01;7.20;99.90
20376;DHT22;10347;51.828;6.466;2023-02-01T00:50:26;7.20;99.90
20376;DHT22;10347;51.828;6.466;2023-02-01T00:52:52;7.20;99.90
20376;DHT22;10347;51.828;6.466;2023-02-01T00:55:17;7.20;99.90
20376;DHT22;10347;51.828;6.466;2023-02-01T00:57:43;7.10;99.90
20376;DHT22;10347;51.828;6.466;2023-02-01T01:00:09;7.10;99.90
20376;DHT22;10347;51.828;6.466;2023-02-01T01:02:35;7.10;99.90
20376;DHT22;10347;51.828;6.466;2023-02-01T01:05:00;7.10;99.90
20376;DHT22;10347;51.828;6.466;2023-02-01T01:07:27;7.20;99.90
20376;DHT22;10347;51.828;6.466;2023-02-01T01:09:53;7.10;99.90
20376;DHT22;10347;51.828;6.466;2023-02-01T01:12:18;7.20;99.90
20376;DHT22;10347;51.828;6.466;2023-02-01T01:14:45;7.20;99.90
20376;DHT22;10347;51.828;6.466;2023-02-01T01:17:10;7.20;99.90
20376;DHT22;10347;51.828;6.466;2023-02-01T01:19:36;7.20;99.90
20376;DHT22;10347;51.828;6.466;2023-02-01T01:22:01;7.20;99.90
20376;DHT22;10347;51.828;6.466;2023-02-01T01:24:27;7.20;99.90
20376;DHT22;10347;51.828;6.466;2023-02-01T01:26:53;7.20;99.90
20376;DHT22;10347;51.828;6.466;2023-02-01T01:29:18;7.20;99.90
20376;DHT22;10347;51.828;6.466;2023-02-01T01:31:44;7.20;99.90
20376;DHT22;10347;51.828;6.466;2023-02-01T01:34:09;7.20;99.90
20376;DHT22;10347;51.828;6.466;2023-02-01T01:36:35;7.20;99.90
20376;DHT22;10347;51.828;6.466;2023-02-01T01:39:01;7.20;99.90
20376;DHT22;10347;51.828;6.466;2023-02-01T01:41:30;7.20;99.90
20376;DHT22;10347;51.828;6.466;2023-02-01T01:43:57;7.20;99.90
20376;DHT22;10347;51.828;6.466;2023-02-01T01:46:26;7.20;99.90
20376;DHT22;10347;51.828;6.466;2023-02-01T01:49:02;7.20;99.90
20376;DHT22;10347;51.828;6.466;2023-02-01T01:51:31;7.30;99.90
20376;DHT22;10347;51.828;6.466;2023-02-01T01:54:09;7.30;99.90
20376;DHT22;10347;51.828;6.466;2023-02-01T01:56:37;7.30;99.90
20376;DHT22;10347;51.828;6.466;2023-02-01T01:59:03;7.30;99.90
20376;DHT22;10347;51.828;6.466;2023-02-01T02:01:30;7.30;99.90
20376;DHT22;10347;51.828;6.466;2023-02-01T02:03:56;7.30;99.90
20376;DHT22;10347;51.828;6.466;2023-02-01T02:06:51;7.30;99.90
20376;DHT22;10347;51.828;6.466;2023-02-01T02:09:21;7.30;99.90
20376;DHT22;10347;51.828;6.466;2023-02-01T02:11:46;7.30;99.90
20376;DHT22;10347;51.828;6.466;2023-02-01T02:14:13;7.30;99.90
20376;DHT22;10347;51.828;6.466;2023-02-01T02:24:49;7.20;99.90
20376;DHT22;10347;51.828;6.466;2023-02-01T02:27:40;7.20;99.90
20376;DHT22;10347;51.828;6.466;2023-02-01T02:33:46;7.20;99.90
20376;DHT22;10347;51.828;6.466;2023-02-01T02:44:58;7.20;99.90
20376;DHT22;10347;51.828;6.466;2023-02-01T02:50:37;7.20;99.90
20376;DHT22;10347;51.828;6.466;2023-02-01T02:56:44;7.20;99.90
20376;DHT22;10347;51.828;6.466;2023-02-01T02:59:28;7.20;99.90
20376;DHT22;10347;51.828;6.466;2023-02-01T03:02:15;7.20;99.90
20376;DHT22;10347;51.828;6.466;2023-02-01T03:04:59;7.20;99.90
20376;DHT22;10347;51.828;6.466;2023-02-01T03:13:11;7.30;99.90
20376;DHT22;10347;51.828;6.466;2023-02-01T03:15:51;7.20;99.90
20376;DHT22;10347;51.828;6.466;2023-02-01T03:18:29;7.30;99.90
20376;DHT22;10347;51.828;6.466;2023-02-01T03:20:58;7.20;99.90
20376;DHT22;10347;51.828;6.466;2023-02-01T03:23:30;7.20;99.90
20376;DHT22;10347;51.828;6.466;2023-02-01T03:25:57;7.20;99.90
20376;DHT22;10347;51.828;6.466;2023-02-01T03:28:25;7.20;99.90
20376;DHT22;10347;51.828;6.466;2023-02-01T03:30:53;7.20;99.90
20376;DHT22;10347;51.828;6.466;2023-02-01T03:33:21;7.20;99.90
20376;DHT22;10347;51.828;6.466;2023-02-01T03:41:42;7.20;99.90
20376;DHT22;10347;51.828;6.466;2023-02-01T03:44:20;7.20;99.90
20376;DHT22;10347;51.828;6.466;2023-02-01T03:46:57;7.20;99.90
20376;DHT22;10347;51.828;6.466;2023-02-01T03:49:28;7.20;99.90
20376;DHT22;10347;51.828;6.466;2023-02-01T03:51:55;7.20;99.90
20376;DHT22;10347;51.828;6.466;2023-02-01T03:54:23;7.20;99.90
20376;DHT22;10347;51.828;6.466;2023-02-01T03:56:50;7.10;99.90
20376;DHT22;10347;51.828;6.466;2023-02-01T03:59:16;7.10;99.90
20376;DHT22;10347;51.828;6.466;2023-02-01T04:01:41;7.10;99.90
20376;DHT22;10347;51.828;6.466;2023-02-01T04:04:07;7.20;99.90
20376;DHT22;10347;51.828;6.466;2023-02-01T04:06:34;7.20;99.90
20376;DHT22;10347;51.828;6.466;2023-02-01T04:09:00;7.10;99.90
20376;DHT22;10347;51.828;6.466;2023-02-01T04:11:26;7.20;99.90
20376;DHT22;10347;51.828;6.466;2023-02-01T04:13:53;7.20;99.90
20376;DHT22;10347;51.828;6.466;2023-02-01T04:16:18;7.10;99.90
20376;DHT22;10347;51.828;6.466;2023-02-01T04:18:44;7.10;99.90
20376;DHT22;10347;51.828;6.466;2023-02-01T04:21:09;7.10;99.90
20376;DHT22;10347;51.828;6.466;2023-02-01T04:23:35;7.10;99.90
20376;DHT22;10347;51.828;6.466;2023-02-01T04:26:03;7.10;99.90
20376;DHT22;10347;51.828;6.466;2023-02-01T04:28:29;7.10;99.90
20376;DHT22;10347;51.828;6.466;2023-02-01T04:30:55;7.10;99.90
20376;DHT22;10347;51.828;6.466;2023-02-01T04:33:20;7.10;99.90
20376;DHT22;10347;51.828;6.466;2023-02-01T04:35:47;7.10;99.90
20376;DHT22;10347;51.828;6.466;2023-02-01T04:38:12;7.10;99.90
20376;DHT22;10347;51.828;6.466;2023-02-01T04:40:38;7.10;99.90
20376;DHT22;10347;51.828;6.466;2023-02-01T04:43:04;7.10;99.90
20376;DHT22;10347;51.828;6.466;2023-02-01T04:45:30;7.10;99.90
20376;DHT22;10347;51.828;6.466;2023-02-01T04:47:56;7.10;99.90
20376;DHT22;10347;51.828;6.466;2023-02-01T04:50:21;7.10;99.90
20376;DHT22;10347;51.828;6.466;2023-02-01T04:52:48;7.10;99.90
20376;DHT22;10347;51.828;6.466;2023-02-01T04:55:14;7.10;99.90
20376;DHT22;10347;51.828;6.466;2023-02-01T04:57:40;7.00;99.90
20376;DHT22;10347;51.828;6.466;2023-02-01T05:00:07;7.00;99.90
20376;DHT22;10347;51.828;6.466;2023-02-01T05:02:33;7.00;99.90
20376;DHT22;10347;51.828;6.466;2023-02-01T05:05:00;7.00;99.90
20376;DHT22;10347;51.828;6.466;2023-02-01T05:07:26;7.00;99.90
20376;DHT22;10347;51.828;6.466;2023-02-01T05:09:52;7.10;99.90
20376;DHT22;10347;51.828;6.466;2023-02-01T05:12:18;7.10;99.90
20376;DHT22;10347;51.828;6.466;2023-02-01T05:15:02;7.00;99.90
20376;DHT22;10347;51.828;6.466;2023-02-01T05:17:28;7.00;99.90
20376;DHT22;10347;51.828;6.466;2023-02-01T05:19:53;7.10;99.90
20376;DHT22;10347;51.828;6.466;2023-02-01T05:22:19;7.10;99.90
20376;DHT22;10347;51.828;6.466;2023-02-01T05:24:45;7.10;99.90
20376;DHT22;10347;51.828;6.466;2023-02-01T05:27:10;7.10;99.90
20376;DHT22;10347;51.828;6.466;2023-02-01T05:29:36;7.20;99.90
20376;DHT22;10347;51.828;6.466;2023-02-01T05:32:01;7.20;99.90
20376;DHT22;10347;51.828;6.466;2023-02-01T05:34:27;7.10;99.90
20376;DHT22;10347;51.828;6.466;2023-02-01T05:36:52;7.20;99.90
20376;DHT22;10347;51.828;6.466;2023-02-01T05:39:18;7.20;99.90
20376;DHT22;10347;51.828;6.466;2023-02-01T05:41:44;7.20;99.90
20376;DHT22;10347;51.828;6.466;2023-02-01T05:44:10;7.20;99.90
20376;DHT22;10347;51.828;6.466;2023-02-01T05:46:36;7.30;99.90
20376;DHT22;10347;51.828;6.466;2023-02-01T05:49:02;7.30;99.90
20376;DHT22;10347;51.828;6.466;2023-02-01T05:51:28;7.30;99.90
20376;DHT22;10347;51.828;6.466;2023-02-01T05:53:54;7.30;99.90
20376;DHT22;10347;51.828;6.466;2023-02-01T05:56:19;7.40;99.90
20376;DHT22;10347;51.828;6.466;2023-02-01T05:58:45;7.40;99.90
20376;DHT22;10347;51.828;6.466;2023-02-01T06:01:10;7.40;99.90
20376;DHT22;10347;51.828;6.466;2023-02-01T06:03:36;7.50;99.90
20376;DHT22;10347;51.828;6.466;2023-02-01T06:06:02;7.50;99.90
20376;DHT22;10347;51.828;6.466;2023-02-01T06:08:28;7.50;99.90
20376;DHT22;10347;51.828;6.466;2023-02-01T06:11:01;7.50;99.90
20376;DHT22;10347;51.828;6.466;2023-02-01T06:13:27;7.60;99.90
20376;DHT22;10347;51.828;6.466;2023-02-01T06:15:53;7.60;99.90
20376;DHT22;10347;51.828;6.466;2023-02-01T06:18:19;7.60;99.90
20376;DHT22;10347;51.828;6.466;2023-02-01T06:20:44;7.60;99.90
20376;DHT22;10347;51.828;6.466;2023-02-01T06:23:10;7.60;99.90
20376;DHT22;10347;51.828;6.466;2023-02-01T06:25:35;7.60;99.90
20376;DHT22;10347;51.828;6.466;2023-02-01T06:28:03;7.60;99.90
20376;DHT22;10347;51.828;6.466;2023-02-01T06:30:31;7.60;99.90
20376;DHT22;10347;51.828;6.466;2023-02-01T06:32:57;7.60;99.90
20376;DHT22;10347;51.828;6.466;2023-02-01T06:35:22;7.60;99.90
20376;DHT22;10347;51.828;6.466;2023-02-01T06:37:48;7.70;99.90
20376;DHT22;10347;51.828;6.466;2023-02-01T06:40:13;7.70;99.90
20376;DHT22;10347;51.828;6.466;2023-02-01T06:42:39;7.70;99.90
20376;DHT22;10347;51.828;6.466;2023-02-01T06:45:05;7.70;99.90
20376;DHT22;10347;51.828;6.466;2023-02-01T06:47:31;7.70;99.90
20376;DHT22;10347;51.828;6.466;2023-02-01T06:49:57;7.70;99.90
20376;DHT22;10347;51.828;6.466;2023-02-01T06:52:22;7.80;99.90
20376;DHT22;10347;51.828;6.466;2023-02-01T06:54:48;7.80;99.90
20376;DHT22;10347;51.828;6.466;2023-02-01T06:57:14;7.70;99.90
20376;DHT22;10347;51.828;6.466;2023-02-01T06:59:40;7.80;99.90
20376;DHT22;10347;51.828;6.466;2023-02-01T07:02:05;7.80;99.90
20376;DHT22;10347;51.828;6.466;2023-02-01T07:04:31;7.80;99.90
20376;DHT22;10347;51.828;6.466;2023-02-01T07:06:56;7.80;99.90
20376;DHT22;10347;51.828;6.466;2023-02-01T07:09:22;7.80;99.90
20376;DHT22;10347;51.828;6.466;2023-02-01T07:11:48;7.90;99.90
20376;DHT22;10347;51.828;6.466;2023-02-01T07:14:13;7.90;99.90
20376;DHT22;10347;51.828;6.466;2023-02-01T07:16:39;7.90;99.90
20376;DHT22;10347;51.828;6.466;2023-02-01T07:19:04;7.90;99.90
20376;DHT22;10347;51.828;6.466;2023-02-01T07:21:30;7.90;99.90
20376;DHT22;10347;51.828;6.466;2023-02-01T07:23:56;7.90;99.90
20376;DHT22;10347;51.828;6.466;2023-02-01T07:26:21;7.90;99.90
20376;DHT22;10347;51.828;6.466;2023-02-01T07:28:47;7.90;99.90
20376;DHT22;10347;51.828;6.466;2023-02-01T07:31:18;7.90;99.90
20376;DHT22;10347;51.828;6.466;2023-02-01T07:33:45;7.90;99.90
20376;DHT22;10347;51.828;6.466;2023-02-01T07:36:13;8.00;99.90
20376;DHT22;10347;51.828;6.466;2023-02-01T07:38:39;7.90;99.90
20376;DHT22;10347;51.828;6.466;2023-02-01T07:41:05;8.00;99.90
20376;DHT22;10347;51.828;6.466;2023-02-01T07:43:32;7.90;99.90
20376;DHT22;10347;51.828;6.466;2023-02-01T07:45:58;8.00;99.90
20376;DHT22;10347;51.828;6.466;2023-02-01T07:48:25;8.00;99.90
20376;DHT22;10347;51.828;6.466;2023-02-01T07:53:28;7.90;99.90
20376;DHT22;10347;51.828;6.466;2023-02-01T07:55:54;8.00;99.90
20376;DHT22;10347;51.828;6.466;2023-02-01T07:58:22;7.90;99.90
20376;DHT22;10347;51.828;6.466;2023-02-01T08:00:47;7.90;99.90
20376;DHT22;10347;51.828;6.466;2023-02-01T08:03:31;7.90;99.90
20376;DHT22;10347;51.828;6.466;2023-02-01T08:05:57;8.00;99.90
20376;DHT22;10347;51.828;6.466;2023-02-01T08:08:23;8.00;99.90
20376;DHT22;10347;51.828;6.466;2023-02-01T08:10:49;8.00;99.90
20376;DHT22;10347;51.828;6.466;2023-02-01T08:13:15;8.00;99.90
20376;DHT22;10347;51.828;6.466;2023-02-01T08:15:40;8.00;99.90
20376;DHT22;10347;51.828;6.466;2023-02-01T08:18:06;8.00;99.90
20376;DHT22;10347;51.828;6.466;2023-02-01T08:20:31;8.00;99.90
20376;DHT22;10347;51.828;6.466;2023-02-01T08:22:59;8.00;99.90
20376;DHT22;10347;51.828;6.466;2023-02-01T08:25:25;8.00;99.90
20376;DHT22;10347;51.828;6.466;2023-02-01T08:27:51;8.00;99.90
20376;DHT22;10347;51.828;6.466;2023-02-01T08:30:17;8.00;99.90
20376;DHT22;10347;51.828;6.466;2023-02-01T08:32:43;8.00;99.90
20376;DHT22;10347;51.828;6.466;2023-02-01T08:35:09;8.00;99.90
20376;DHT22;10347;51.828;6.466;2023-02-01T08:37:34;8.00;99.90
20376;DHT22;10347;51.828;6.466;2023-02-01T08:40:00;8.00;99.90
20376;DHT22;10347;51.828;6.466;2023-02-01T08:42:26;8.00;99.90
20376;DHT22;10347;51.828;6.466;2023-02-01T08:45:10;8.00;99.90
20376;DHT22;10347;51.828;6.466;2023-02-01T08:47:36;8.00;99.90
20376;DHT22;10347;51.828;6.466;2023-02-01T08:50:01;8.00;99.90
20376;DHT22;10347;51.828;6.466;2023-02-01T08:52:27;8.00;99.90
20376;DHT22;10347;51.828;6.466;2023-02-01T08:54:53;8.00;99.90
20376;DHT22;10347;51.828;6.466;2023-02-01T08:57:18;8.00;99.90
20376;DHT22;10347;51.828;6.466;2023-02-01T08:59:44;8.00;99.90
20376;DHT22;10347;51.828;6.466;2023-02-01T09:02:14;8.00;99.90
20376;DHT22;10347;51.828;6.466;2023-02-01T09:04:40;8.10;99.90
20376;DHT22;10347;51.828;6.466;2023-02-01T09:07:07;8.00;99.90
20376;DHT22;10347;51.828;6.466;2023-02-01T09:09:32;8.10;99.90
20376;DHT22;10347;51.828;6.466;2023-02-01T09:11:58;8.10;99.90
20376;DHT22;10347;51.828;6.466;2023-02-01T09:14:24;8.10;99.90
20376;DHT22;10347;51.828;6.466;2023-02-01T09:16:49;8.20;99.90
20376;DHT22;10347;51.828;6.466;2023-02-01T09:19:15;8.20;99.90
20376;DHT22;10347;51.828;6.466;2023-02-01T09:21:40;8.30;99.90
20376;DHT22;10347;51.828;6.466;2023-02-01T09:24:06;8.30;99.90
20376;DHT22;10347;51.828;6.466;2023-02-01T09:26:32;8.30;99.90
20376;DHT22;10347;51.828;6.466;2023-02-01T09:28:59;8.40;99.90
20376;DHT22;10347;51.828;6.466;2023-02-01T09:31:24;8.40;99.90
20376;DHT22;10347;51.828;6.466;2023-02-01T09:33:50;8.40;99.90
20376;DHT22;10347;51.828;6.466;2023-02-01T09:36:16;8.50;99.90
20376;DHT22;10347;51.828;6.466;2023-02-01T09:38:41;8.50;99.90
20376;DHT22;10347;51.828;6.466;2023-02-01T09:44:18;8.40;99.90
20376;DHT22;10347;51.828;6.466;2023-02-01T09:46:46;8.40;99.90
20376;DHT22;10347;51.828;6.466;2023-02-01T09:49:26;8.40;99.90
20376;DHT22;10347;51.828;6.466;2023-02-01T09:51:54;8.40;99.90
20376;DHT22;10347;51.828;6.466;2023-02-01T09:54:34;8.40;99.90
20376;DHT22;10347;51.828;6.466;2023-02-01T09:57:10;8.50;99.90
20376;DHT22;10347;51.828;6.466;2023-02-01T09:59:44;8.50;99.90
20376;DHT22;10347;51.828;6.466;2023-02-01T10:02:17;8.50;99.90
20376;DHT22;10347;51.828;6.466;2023-02-01T10:04:44;8.50;99.90
20376;DHT22;10347;51.828;6.466;2023-02-01T10:10:00;8.50;99.90
20376;DHT22;10347;51.828;6.466;2023-02-01T10:23:16;8.70;99.90
20376;DHT22;10347;51.828;6.466;2023-02-01T10:25:53;8.70;99.90
20376;DHT22;10347;51.828;6.466;2023-02-01T10:28:19;8.70;99.90
20376;DHT22;10347;51.828;6.466;2023-02-01T10:30:47;8.70;99.90
20376;DHT22;10347;51.828;6.466;2023-02-01T10:33:25;8.80;99.90
20376;DHT22;10347;51.828;6.466;2023-02-01T10:35:55;8.80;99.90
20376;DHT22;10347;51.828;6.466;2023-02-01T10:38:29;8.80;99.90
20376;DHT22;10347;51.828;6.466;2023-02-01T10:41:01;8.80;99.90
20376;DHT22;10347;51.828;6.466;2023-02-01T10:43:27;8.80;99.90
20376;DHT22;10347;51.828;6.466;2023-02-01T10:45:53;8.80;99.90
20376;DHT22;10347;51.828;6.466;2023-02-01T10:48:18;8.90;99.90
20376;DHT22;10347;51.828;6.466;2023-02-01T10:50:51;8.90;99.90
20376;DHT22;10347;51.828;6.466;2023-02-01T10:53:24;8.80;99.90
20376;DHT22;10347;51.828;6.466;2023-02-01T10:55:54;8.80;99.90
20376;DHT22;10347;51.828;6.466;2023-02-01T10:58:27;8.80;99.90
20376;DHT22;10347;51.828;6.466;2023-02-01T11:00:58;8.80;99.90
20376;DHT22;10347;51.828;6.466;2023-02-01T11:03:44;8.90;99.90
20376;DHT22;10347;51.828;6.466;2023-02-01T11:06:22;8.90;99.90
20376;DHT22;10347;51.828;6.466;2023-02-01T11:08:58;8.90;99.90
20376;DHT22;10347;51.828;6.466;2023-02-01T11:11:24;8.90;99.90
20376;DHT22;10347;51.828;6.466;2023-02-01T11:13:59;8.90;99.90
20376;DHT22;10347;51.828;6.466;2023-02-01T11:16:38;8.90;99.90
20376;DHT22;10347;51.828;6.466;2023-02-01T11:19:04;8.80;99.90
20376;DHT22;10347;51.828;6.466;2023-02-01T11:21:31;8.80;99.90
20376;DHT22;10347;51.828;6.466;2023-02-01T11:24:04;8.80;99.90
20376;DHT22;10347;51.828;6.466;2023-02-01T11:26:31;8.70;99.90
20376;DHT22;10347;51.828;6.466;2023-02-01T11:29:04;8.70;99.90
20376;DHT22;10347;51.828;6.466;2023-02-01T11:31:30;8.70;99.90
20376;DHT22;10347;51.828;6.466;2023-02-01T11:34:04;8.60;99.90
20376;DHT22;10347;51.828;6.466;2023-02-01T11:36:32;8.60;99.90
20376;DHT22;10347;51.828;6.466;2023-02-01T11:39:19;8.60;99.90
20376;DHT22;10347;51.828;6.466;2023-02-01T11:42:03;8.60;99.90
20376;DHT22;10347;51.828;6.466;2023-02-01T11:44:37;8.60;99.90
20376;DHT22;10347;51.828;6.466;2023-02-01T11:47:23;8.60;99.90
20376;DHT22;10347;51.828;6.466;2023-02-01T11:49:51;8.60;99.90
20376;DHT22;10347;51.828;6.466;2023-02-01T11:52:51;8.60;99.90
20376;DHT22;10347;51.828;6.466;2023-02-01T11:55:49;8.70;99.90
20376;DHT22;10347;51.828;6.466;2023-02-01T12:01:50;8.70;99.90
20376;DHT22;10347;51.828;6.466;2023-02-01T12:13:55;8.70;99.90
20376;DHT22;10347;51.828;6.466;2023-02-01T12:16:40;8.70;99.90
20376;DHT22;10347;51.828;6.466;2023-02-01T12:27:42;8.70;99.90
20376;DHT22;10347;51.828;6.466;2023-02-01T12:38:25;8.70;99.90
20376;DHT22;10347;51.828;6.466;2023-02-01T12:44:06;8.70;99.90
20376;DHT22;10347;51.828;6.466;2023-02-01T12:46:47;8.70;99.90
20376;DHT22;10347;51.828;6.466;2023-02-01T12:52:06;8.80;99.90
20376;DHT22;10347;51.828;6.466;2023-02-01T12:54:43;8.80;99.90
20376;DHT22;10347;51.828;6.466;2023-02-01T12:57:40;8.90;99.90
20376;DHT22;10347;51.828;6.466;2023-02-01T13:00:13;8.90;99.90
20376;DHT22;10347;51.828;6.466;2023-02-01T13:02:54;8.90;99.90
20376;DHT22;10347;51.828;6.466;2023-02-01T13:05:31;8.90;99.90
20376;DHT22;10347;51.828;6.466;2023-02-01T13:08:05;8.90;99.90
20376;DHT22;10347;51.828;6.466;2023-02-01T13:10:54;9.00;99.90
20376;DHT22;10347;51.828;6.466;2023-02-01T13:13:52;9.00;99.90
20376;DHT22;10347;51.828;6.466;2023-02-01T13:16:38;9.00;99.90
20376;DHT22;10347;51.828;6.466;2023-02-01T13:19:20;9.00;99.90
20376;DHT22;10347;51.828;6.466;2023-02-01T13:21:57;9.00;99.90
20376;DHT22;10347;51.828;6.466;2023-02-01T13:26:56;9.00;99.90
20376;DHT22;10347;51.828;6.466;2023-02-01T13:29:23;9.00;99.90
20376;DHT22;10347;51.828;6.466;2023-02-01T13:34:52;9.00;99.90
20376;DHT22;10347;51.828;6.466;2023-02-01T13:42:55;9.10;99.90
20376;DHT22;10347;51.828;6.466;2023-02-01T13:45:27;9.00;99.90
20376;DHT22;10347;51.828;6.466;2023-02-01T13:47:57;9.00;99.90
20376;DHT22;10347;51.828;6.466;2023-02-01T13:50:28;9.00;99.90
20376;DHT22;10347;51.828;6.466;2023-02-01T13:53:14;9.00;99.90
20376;DHT22;10347;51.828;6.466;2023-02-01T13:55:44;9.00;99.90
20376;DHT22;10347;51.828;6.466;2023-02-01T13:58:29;9.00;99.90
20376;DHT22;10347;51.828;6.466;2023-02-01T14:03:54;9.00;99.90
20376;DHT22;10347;51.828;6.466;2023-02-01T14:21:56;9.10;99.90
20376;DHT22;10347;51.828;6.466;2023-02-01T14:24:28;9.10;99.90
20376;DHT22;10347;51.828;6.466;2023-02-01T14:27:01;9.10;99.90
20376;DHT22;10347;51.828;6.466;2023-02-01T14:29:33;9.10;99.90
20376;DHT22;10347;51.828;6.466;2023-02-01T14:32:16;9.10;99.90
20376;DHT22;10347;51.828;6.466;2023-02-01T14:37:35;9.10;99.90
20376;DHT22;10347;51.828;6.466;2023-02-01T15:01:00;9.10;99.90
20376;DHT22;10347;51.828;6.466;2023-02-01T15:03:37;9.20;99.90
20376;DHT22;10347;51.828;6.466;2023-02-01T15:09:44;9.20;99.90
20376;DHT22;10347;51.828;6.466;2023-02-01T15:14:42;9.20;99.90
20376;DHT22;10347;51.828;6.466;2023-02-01T15:17:29;9.20;99.90
20376;DHT22;10347;51.828;6.466;2023-02-01T15:20:14;9.20;99.90
20376;DHT22;10347;51.828;6.466;2023-02-01T15:22:41;9.20;99.90
20376;DHT22;10347;51.828;6.466;2023-02-01T15:25:21;9.20;99.90
20376;DHT22;10347;51.828;6.466;2023-02-01T15:27:47;9.30;99.90
20376;DHT22;10347;51.828;6.466;2023-02-01T15:32:43;9.30;99.90
20376;DHT22;10347;51.828;6.466;2023-02-01T15:35:31;9.30;99.90
20376;DHT22;10347;51.828;6.466;2023-02-01T15:41:04;9.30;99.90
20376;DHT22;10347;51.828;6.466;2023-02-01T15:43:34;9.30;99.90
20376;DHT22;10347;51.828;6.466;2023-02-01T15:46:02;9.30;99.90
20376;DHT22;10347;51.828;6.466;2023-02-01T15:48:35;9.20;99.90
20376;DHT22;10347;51.828;6.466;2023-02-01T15:51:02;9.30;99.90
20376;DHT22;10347;51.828;6.466;2023-02-01T15:53:29;9.30;99.90
20376;DHT22;10347;51.828;6.466;2023-02-01T15:55:59;9.30;99.90
20376;DHT22;10347;51.828;6.466;2023-02-01T15:58:26;9.30;99.90
20376;DHT22;10347;51.828;6.466;2023-02-01T16:00:56;9.30;99.90
20376;DHT22;10347;51.828;6.466;2023-02-01T16:05:58;9.30;99.90
20376;DHT22;10347;51.828;6.466;2023-02-01T16:08:26;9.30;99.90
20376;DHT22;10347;51.828;6.466;2023-02-01T16:13:35;9.10;99.90
20376;DHT22;10347;51.828;6.466;2023-02-01T16:16:01;8.90;99.90
20376;DHT22;10347;51.828;6.466;2023-02-01T16:18:27;8.70;99.90
20376;DHT22;10347;51.828;6.466;2023-02-01T16:20:53;8.60;99.90
20376;DHT22;10347;51.828;6.466;2023-02-01T16:23:19;8.60;99.90
20376;DHT22;10347;51.828;6.466;2023-02-01T16:25:46;8.50;99.90
20376;DHT22;10347;51.828;6.466;2023-02-01T16:28:12;8.50;99.90
20376;DHT22;10347;51.828;6.466;2023-02-01T16:30:38;8.50;99.90
20376;DHT22;10347;51.828;6.466;2023-02-01T16:33:05;8.40;99.90
20376;DHT22;10347;51.828;6.466;2023-02-01T16:35:34;8.40;99.90
20376;DHT22;10347;51.828;6.466;2023-02-01T16:38:15;8.40;99.90
20376;DHT22;10347;51.828;6.466;2023-02-01T16:40:44;8.40;99.90
20376;DHT22;10347;51.828;6.466;2023-02-01T16:43:21;8.40;99.90
20376;DHT22;10347;51.828;6.466;2023-02-01T16:45:48;8.40;99.90
20376;DHT22;10347;51.828;6.466;2023-02-01T16:48:22;8.30;99.90
20376;DHT22;10347;51.828;6.466;2023-02-01T16:50:51;8.30;99.90
20376;DHT22;10347;51.828;6.466;2023-02-01T16:53:18;8.30;99.90
20376;DHT22;10347;51.828;6.466;2023-02-01T16:56:16;8.30;99.90
20376;DHT22;10347;51.828;6.466;2023-02-01T16:58:42;8.30;99.90
20376;DHT22;10347;51.828;6.466;2023-02-01T17:01:10;8.30;99.90
20376;DHT22;10347;51.828;6.466;2023-02-01T17:03:36;8.30;99.90
20376;DHT22;10347;51.828;6.466;2023-02-01T17:06:03;8.30;99.90
20376;DHT22;10347;51.828;6.466;2023-02-01T17:08:31;8.30;99.90
20376;DHT22;10347;51.828;6.466;2023-02-01T17:10:58;8.40;99.90
20376;DHT22;10347;51.828;6.466;2023-02-01T17:13:23;8.40;99.90
20376;DHT22;10347;51.828;6.466;2023-02-01T17:15:58;8.40;99.90
20376;DHT22;10347;51.828;6.466;2023-02-01T17:18:27;8.50;99.90
20376;DHT22;10347;51.828;6.466;2023-02-01T17:20:57;8.50;99.90
20376;DHT22;10347;51.828;6.466;2023-02-01T17:23:22;8.50;99.90
20376;DHT22;10347;51.828;6.466;2023-02-01T17:25:48;8.60;99.90
20376;DHT22;10347;51.828;6.466;2023-02-01T17:28:13;8.60;99.90
20376;DHT22;10347;51.828;6.466;2023-02-01T17:30:39;8.70;99.90
20376;DHT22;10347;51.828;6.466;2023-02-01T17:33:16;8.70;99.90
20376;DHT22;10347;51.828;6.466;2023-02-01T17:35:42;8.70;99.90
20376;DHT22;10347;51.828;6.466;2023-02-01T17:38:11;8.80;99.90
20376;DHT22;10347;51.828;6.466;2023-02-01T17:40:36;8.60;99.90
20376;DHT22;10347;51.828;6.466;2023-02-01T17:43:02;8.60;99.90
20376;DHT22;10347;51.828;6.466;2023-02-01T17:45:37;8.50;99.90
20376;DHT22;10347;51.828;6.466;2023-02-01T17:48:06;8.40;99.90
20376;DHT22;10347;51.828;6.466;2023-02-01T17:50:35;8.30;99.90
20376;DHT22;10347;51.828;6.466;2023-02-01T17:53:02;8.30;99.90
20376;DHT22;10347;51.828;6.466;2023-02-01T17:55:32;8.20;99.90
20376;DHT22;10347;51.828;6.466;2023-02-01T17:57:58;8.00;99.90
20376;DHT22;10347;51.828;6.466;2023-02-01T18:00:24;8.00;99.90
20376;DHT22;10347;51.828;6.466;2023-02-01T18:02:50;7.90;99.90
20376;DHT22;10347;51.828;6.466;2023-02-01T18:05:19;7.90;99.90
20376;DHT22;10347;51.828;6.466;2023-02-01T18:07:46;7.90;99.90
20376;DHT22;10347;51.828;6.466;2023-02-01T18:10:11;7.90;99.90
20376;DHT22;10347;51.828;6.466;2023-02-01T18:12:38;7.90;99.90
20376;DHT22;10347;51.828;6.466;2023-02-01T18:15:19;7.90;99.90
20376;DHT22;10347;51.828;6.466;2023-02-01T18:17:46;7.90;99.90
20376;DHT22;10347;51.828;6.466;2023-02-01T18:20:22;8.00;99.90
20376;DHT22;10347;51.828;6.466;2023-02-01T18:22:48;8.00;99.90
20376;DHT22;10347;51.828;6.466;2023-02-01T18:25:17;8.00;99.90
20376;DHT22;10347;51.828;6.466;2023-02-01T18:27:44;8.00;99.90
20376;DHT22;10347;51.828;6.466;2023-02-01T18:30:11;8.10;99.90
20376;DHT22;10347;51.828;6.466;2023-02-01T18:32:37;8.10;99.90
20376;DHT22;10347;51.828;6.466;2023-02-01T18:35:15;8.20;99.90
20376;DHT22;10347;51.828;6.466;2023-02-01T18:37:40;8.20;99.90
20376;DHT22;10347;51.828;6.466;2023-02-01T18:40:08;8.30;99.90
20376;DHT22;10347;51.828;6.466;2023-02-01T18:42:36;8.30;99.90
20376;DHT22;10347;51.828;6.466;2023-02-01T18:45:01;8.40;99.90